TimeCDT,TemperatureF,Dew PointF,Humidity,Sea Level PressureIn,VisibilityMPH,Wind Direction,Wind SpeedMPH,Gust SpeedMPH,PrecipitationIn,Events,Conditions,WindDirDegrees,DateUTC
12:53 AM,73.9,69.1,85,30.08,10.0,SSW,3.5,-,N/A,,Clear,210,2013-07-08 05:53:00
1:53 AM,71.1,68.0,90,30.07,10.0,Calm,Calm,-,N/A,,Clear,0,2013-07-08 06:53:00
2:53 AM,70.0,68.0,93,30.07,10.0,Calm,Calm,-,N/A,,Clear,0,2013-07-08 07:53:00
3:53 AM,73.0,69.1,87,30.07,10.0,South,3.5,-,N/A,,Clear,170,2013-07-08 08:53:00
4:53 AM,72.0,69.1,91,30.08,10.0,South,5.8,-,N/A,,Clear,180,2013-07-08 09:53:00
5:53 AM,72.0,69.1,91,30.09,10.0,SSW,4.6,-,N/A,,Clear,200,2013-07-08 10:53:00
6:53 AM,73.0,70.0,90,30.09,10.0,SSW,4.6,-,N/A,,Clear,210,2013-07-08 11:53:00
7:53 AM,75.9,72.0,87,30.11,10.0,SW,4.6,-,N/A,,Clear,230,2013-07-08 12:53:00
8:53 AM,80.1,73.0,79,30.12,10.0,SSW,5.8,-,N/A,,Clear,200,2013-07-08 13:53:00
9:53 AM,82.9,73.0,72,30.12,10.0,SW,5.8,-,N/A,,Clear,220,2013-07-08 14:53:00
10:53 AM,86.0,72.0,63,30.13,10.0,SSW,6.9,-,N/A,,Clear,210,2013-07-08 15:53:00
11:53 AM,86.0,71.1,61,30.13,10.0,SW,5.8,-,N/A,,Clear,230,2013-07-08 16:53:00
12:53 PM,88.0,70.0,55,30.12,10.0,Variable,5.8,-,N/A,,Clear,0,2013-07-08 17:53:00
1:53 PM,88.0,71.1,57,30.10,10.0,SW,4.6,-,N/A,,Clear,230,2013-07-08 18:53:00
2:53 PM,89.1,70.0,53,30.08,10.0,South,9.2,-,N/A,,Clear,180,2013-07-08 19:53:00
3:53 PM,90.0,71.1,54,30.07,10.0,SW,8.1,-,N/A,,Partly Cloudy,220,2013-07-08 20:53:00
4:53 PM,89.1,69.1,52,30.06,10.0,WSW,4.6,-,N/A,,Clear,240,2013-07-08 21:53:00
5:53 PM,87.1,70.0,57,30.04,10.0,SSW,4.6,-,N/A,,Clear,200,2013-07-08 22:53:00
6:53 PM,87.1,71.1,59,30.04,10.0,Calm,Calm,-,N/A,,Clear,0,2013-07-08 23:53:00
7:53 PM,84.9,72.0,65,30.04,8.0,Calm,Calm,-,N/A,,Clear,0,2013-07-09 00:53:00
8:53 PM,81.0,72.0,74,30.04,10.0,South,4.6,-,N/A,,Clear,170,2013-07-09 01:53:00
9:53 PM,79.0,72.0,79,30.07,10.0,South,6.9,-,N/A,,Clear,170,2013-07-09 02:53:00
10:53 PM,79.0,72.0,79,30.07,10.0,South,4.6,-,N/A,,Clear,180,2013-07-09 03:53:00
11:53 PM,79.0,72.0,79,30.07,10.0,Calm,Calm,-,N/A,,Clear,0,2013-07-09 04:53:00